createdAt,value
2018-02-04T13:13:10.609Z,42.60
2018-02-04T13:18:10.835Z,42.40
2018-02-04T13:20:37.946Z,42.60
2018-02-04T13:23:04.230Z,43.30
2018-02-04T13:25:31.300Z,40.60
2018-02-04T13:27:57.611Z,40.50
2018-02-04T13:30:24.774Z,40.50
2018-02-04T13:32:51.827Z,42.50
2018-02-04T13:35:18.130Z,41.80
2018-02-04T13:37:44.426Z,41.50
2018-02-04T13:40:10.793Z,42.20
2018-02-04T13:42:37.843Z,40.40
2018-02-04T13:45:04.918Z,41.60
2018-02-04T13:47:31.283Z,41.50
2018-02-04T13:49:57.629Z,41.60
2018-02-04T13:52:23.981Z,41.70
2018-02-04T13:54:51.042Z,42.70
2018-02-04T13:57:18.358Z,41.40
2018-02-04T13:59:44.698Z,41.20
2018-02-04T14:02:11.037Z,40.90
2018-02-04T14:04:37.379Z,41.10
2018-02-04T14:07:04.427Z,41.60
2018-02-04T14:09:31.502Z,41.50
2018-02-04T14:11:57.870Z,41.50
2018-02-04T14:14:24.397Z,42.20
2018-02-04T14:16:50.698Z,42.20
2018-02-04T14:19:17.038Z,42.40
2018-02-04T14:21:43.409Z,42.40
2018-02-04T14:24:09.714Z,42.40
2018-02-04T14:38:09.796Z,29.20
2018-02-04T14:40:36.117Z,29.20
2018-02-04T14:43:02.446Z,32.50
2018-02-04T14:45:28.771Z,34.90
2018-02-04T14:47:55.106Z,39.00
2018-02-04T14:50:21.439Z,39.10
2018-02-04T14:52:47.946Z,39.60
2018-02-04T14:55:15.002Z,41.30
2018-02-04T14:57:42.050Z,41.70
2018-02-04T15:00:09.143Z,43.10
2018-02-04T15:02:35.472Z,43.10
2018-02-04T15:05:01.804Z,43.50
2018-02-04T15:07:28.137Z,44.10
2018-02-04T15:09:54.461Z,43.70
2018-02-04T15:12:20.998Z,44.70
2018-02-04T15:14:47.340Z,45.10
2018-02-04T15:17:13.639Z,45.00
2018-02-04T15:19:39.951Z,46.90
2018-02-04T15:22:07.010Z,46.00
2018-02-04T15:24:33.325Z,45.90
2018-02-04T15:27:00.426Z,47.90
2018-02-04T15:29:26.745Z,47.80
2018-02-04T15:31:53.038Z,48.00
2018-02-04T15:34:19.370Z,48.00
2018-02-04T15:36:45.679Z,49.70
2018-02-04T15:39:12.731Z,47.60
2018-02-04T15:41:39.806Z,46.90
2018-02-04T15:44:06.210Z,46.90
2018-02-04T15:46:33.363Z,48.90
2018-02-04T15:49:00.410Z,48.10
2018-02-04T15:51:27.689Z,48.30
2018-02-04T15:53:54.063Z,48.00
2018-02-04T15:56:20.362Z,47.40
2018-02-04T15:58:46.705Z,47.40
2018-02-04T16:01:12.992Z,47.40
2018-02-04T16:03:39.311Z,48.80
2018-02-04T16:06:06.366Z,48.10
2018-02-04T16:08:33.442Z,47.80
2018-02-04T16:10:59.757Z,47.70
2018-02-04T16:13:26.066Z,49.40
2018-02-04T16:15:53.166Z,51.10
2018-02-04T16:18:19.491Z,51.00
2018-02-04T16:20:45.862Z,50.70
2018-02-04T16:23:12.154Z,51.20
2018-02-04T16:25:38.475Z,51.90
2018-02-04T16:28:04.762Z,53.40
2018-02-04T16:30:31.834Z,52.40
2018-02-04T16:32:58.138Z,52.10
2018-02-04T16:35:24.438Z,52.70
2018-02-04T16:37:50.757Z,53.20
2018-02-04T16:40:17.086Z,54.00
2018-02-04T16:42:43.406Z,54.20
2018-02-04T16:45:09.738Z,53.70
2018-02-04T16:47:36.063Z,54.60
2018-02-04T16:50:02.370Z,54.10
2018-02-04T16:52:29.436Z,54.10
2018-02-04T16:54:55.802Z,54.10
2018-02-04T16:57:24.099Z,54.20
2018-02-04T16:59:50.421Z,53.50
2018-02-04T17:02:16.754Z,54.00
2018-02-04T17:04:43.086Z,54.00
2018-02-04T17:07:09.389Z,54.90
